Archival Weather

Heathrow

London, United Kingdom (EGLL)

Report from: Sunday, March 19, 2023 9:20 PM GMT
Current time: Tuesday, July 16, 2024 9:27 AM BST

Current weather – Weather history – Daily summaries
Weather forecast

Temperature9.0°C (48.2°F)
Wind chill7.3°C (45.1°F)
Dew point4.0°C (39.2°F)
Winds 6 kts (3.1 m/s, 6.9 mph) Southwest (220°)
Visibility6.2 mi. (10 km)
Clouds Sky clear
Altimeter30.09 in.Hg (1019 mB)
Relative humidity71 %
Density altitude-794 ft. (-242 m)
Remarks Fully automated report
Corrected report
No clouds detected
No significant changes expected in the next two hours
Flight conditions Visual Meteorological Conditions
Raw dataCOR EGLL 192120Z AUTO 22006KT 9999 NCD 09/04 Q1019 NOSIG
An error has occurred. This application may no longer respond until reloaded. Reload 🗙